sensor_id;sensor_type;location;lat;lon;timestamp;P1;durP1;ratioP1;P2;durP2;ratioP2
44428;SDS011;30134;47.866;-4.222;2024-01-30T00:02:14;21.17;;;16.02;;
44428;SDS011;30134;47.866;-4.222;2024-01-30T00:04:40;21.35;;;15.48;;
44428;SDS011;30134;47.866;-4.222;2024-01-30T00:07:06;21.88;;;15.95;;
44428;SDS011;30134;47.866;-4.222;2024-01-30T00:09:32;21.27;;;15.27;;
44428;SDS011;30134;47.866;-4.222;2024-01-30T00:11:59;17.15;;;14.13;;
44428;SDS011;30134;47.866;-4.222;2024-01-30T00:14:25;18.10;;;13.93;;
44428;SDS011;30134;47.866;-4.222;2024-01-30T00:16:51;17.42;;;13.60;;
44428;SDS011;30134;47.866;-4.222;2024-01-30T00:19:17;20.90;;;14.00;;
44428;SDS011;30134;47.866;-4.222;2024-01-30T00:21:43;18.42;;;13.63;;
44428;SDS011;30134;47.866;-4.222;2024-01-30T00:24:09;16.33;;;13.25;;
44428;SDS011;30134;47.866;-4.222;2024-01-30T00:26:35;16.83;;;12.95;;
44428;SDS011;30134;47.866;-4.222;2024-01-30T00:29:01;16.90;;;13.05;;
44428;SDS011;30134;47.866;-4.222;2024-01-30T00:31:28;16.77;;;12.65;;
44428;SDS011;30134;47.866;-4.222;2024-01-30T00:33:54;17.70;;;12.90;;
44428;SDS011;30134;47.866;-4.222;2024-01-30T00:36:20;16.75;;;11.05;;
44428;SDS011;30134;47.866;-4.222;2024-01-30T00:38:46;14.68;;;11.38;;
44428;SDS011;30134;47.866;-4.222;2024-01-30T00:41:12;15.57;;;11.73;;
44428;SDS011;30134;47.866;-4.222;2024-01-30T00:43:39;16.13;;;11.73;;
44428;SDS011;30134;47.866;-4.222;2024-01-30T00:46:05;13.30;;;10.35;;
44428;SDS011;30134;47.866;-4.222;2024-01-30T00:48:31;13.23;;;10.52;;
44428;SDS011;30134;47.866;-4.222;2024-01-30T00:50:57;12.80;;;10.80;;
44428;SDS011;30134;47.866;-4.222;2024-01-30T00:53:23;12.13;;;9.80;;
44428;SDS011;30134;47.866;-4.222;2024-01-30T00:55:49;11.82;;;9.65;;
44428;SDS011;30134;47.866;-4.222;2024-01-30T00:58:14;12.00;;;9.35;;
44428;SDS011;30134;47.866;-4.222;2024-01-30T01:00:41;12.18;;;9.15;;
44428;SDS011;30134;47.866;-4.222;2024-01-30T01:03:07;11.80;;;9.20;;
44428;SDS011;30134;47.866;-4.222;2024-01-30T01:05:33;11.20;;;9.05;;
44428;SDS011;30134;47.866;-4.222;2024-01-30T01:07:59;10.95;;;8.70;;
44428;SDS011;30134;47.866;-4.222;2024-01-30T01:10:25;12.02;;;8.93;;
44428;SDS011;30134;47.866;-4.222;2024-01-30T01:12:51;11.30;;;8.73;;
44428;SDS011;30134;47.866;-4.222;2024-01-30T01:15:17;9.73;;;8.00;;
44428;SDS011;30134;47.866;-4.222;2024-01-30T01:17:43;11.25;;;7.97;;
44428;SDS011;30134;47.866;-4.222;2024-01-30T01:20:09;10.93;;;7.97;;
44428;SDS011;30134;47.866;-4.222;2024-01-30T01:22:35;10.32;;;7.53;;
44428;SDS011;30134;47.866;-4.222;2024-01-30T01:25:04;9.55;;;7.43;;
44428;SDS011;30134;47.866;-4.222;2024-01-30T01:27:34;10.00;;;7.65;;
44428;SDS011;30134;47.866;-4.222;2024-01-30T01:30:05;10.57;;;7.85;;
44428;SDS011;30134;47.866;-4.222;2024-01-30T01:32:34;9.75;;;7.60;;
44428;SDS011;30134;47.866;-4.222;2024-01-30T01:35:01;8.95;;;7.30;;
44428;SDS011;30134;47.866;-4.222;2024-01-30T01:37:29;10.10;;;7.50;;
44428;SDS011;30134;47.866;-4.222;2024-01-30T01:39:55;8.38;;;6.60;;
44428;SDS011;30134;47.866;-4.222;2024-01-30T01:42:21;9.23;;;6.70;;
44428;SDS011;30134;47.866;-4.222;2024-01-30T01:44:47;8.45;;;6.63;;
44428;SDS011;30134;47.866;-4.222;2024-01-30T01:47:14;7.75;;;6.30;;
44428;SDS011;30134;47.866;-4.222;2024-01-30T01:49:40;7.22;;;5.95;;
44428;SDS011;30134;47.866;-4.222;2024-01-30T01:52:06;8.85;;;6.25;;
44428;SDS011;30134;47.866;-4.222;2024-01-30T01:54:33;8.02;;;6.40;;
44428;SDS011;30134;47.866;-4.222;2024-01-30T01:56:59;6.82;;;5.47;;
44428;SDS011;30134;47.866;-4.222;2024-01-30T01:59:25;8.25;;;6.15;;
44428;SDS011;30134;47.866;-4.222;2024-01-30T02:01:52;8.32;;;5.53;;
44428;SDS011;30134;47.866;-4.222;2024-01-30T02:04:20;7.80;;;5.72;;
44428;SDS011;30134;47.866;-4.222;2024-01-30T02:06:46;6.93;;;5.57;;
44428;SDS011;30134;47.866;-4.222;2024-01-30T02:09:12;7.20;;;5.63;;
44428;SDS011;30134;47.866;-4.222;2024-01-30T02:11:38;7.53;;;5.07;;
44428;SDS011;30134;47.866;-4.222;2024-01-30T02:14:05;6.90;;;5.07;;
44428;SDS011;30134;47.866;-4.222;2024-01-30T02:16:32;7.10;;;4.90;;
44428;SDS011;30134;47.866;-4.222;2024-01-30T02:18:58;5.57;;;4.72;;
44428;SDS011;30134;47.866;-4.222;2024-01-30T02:21:24;7.07;;;4.93;;
44428;SDS011;30134;47.866;-4.222;2024-01-30T02:23:50;7.20;;;4.68;;
44428;SDS011;30134;47.866;-4.222;2024-01-30T02:26:17;5.30;;;4.18;;
44428;SDS011;30134;47.866;-4.222;2024-01-30T02:28:43;5.35;;;4.35;;
44428;SDS011;30134;47.866;-4.222;2024-01-30T02:31:09;6.47;;;4.78;;
44428;SDS011;30134;47.866;-4.222;2024-01-30T02:33:35;5.32;;;3.92;;
44428;SDS011;30134;47.866;-4.222;2024-01-30T02:36:01;5.00;;;4.20;;
44428;SDS011;30134;47.866;-4.222;2024-01-30T02:38:28;5.53;;;4.05;;
44428;SDS011;30134;47.866;-4.222;2024-01-30T02:40:54;4.38;;;3.70;;
44428;SDS011;30134;47.866;-4.222;2024-01-30T02:43:21;5.32;;;4.10;;
44428;SDS011;30134;47.866;-4.222;2024-01-30T02:45:47;4.72;;;3.75;;
44428;SDS011;30134;47.866;-4.222;2024-01-30T02:48:13;5.63;;;3.65;;
44428;SDS011;30134;47.866;-4.222;2024-01-30T02:50:39;4.63;;;3.75;;
44428;SDS011;30134;47.866;-4.222;2024-01-30T02:53:05;5.82;;;3.60;;
44428;SDS011;30134;47.866;-4.222;2024-01-30T02:55:31;4.85;;;3.75;;
44428;SDS011;30134;47.866;-4.222;2024-01-30T02:57:58;4.97;;;3.47;;
44428;SDS011;30134;47.866;-4.222;2024-01-30T03:00:24;4.78;;;3.63;;
44428;SDS011;30134;47.866;-4.222;2024-01-30T03:02:52;5.55;;;3.50;;
44428;SDS011;30134;47.866;-4.222;2024-01-30T03:05:21;3.55;;;3.17;;
44428;SDS011;30134;47.866;-4.222;2024-01-30T03:07:47;3.88;;;2.88;;
44428;SDS011;30134;47.866;-4.222;2024-01-30T03:10:13;4.32;;;3.53;;
44428;SDS011;30134;47.866;-4.222;2024-01-30T03:12:39;3.92;;;3.28;;
44428;SDS011;30134;47.866;-4.222;2024-01-30T03:15:05;4.05;;;3.20;;
44428;SDS011;30134;47.866;-4.222;2024-01-30T03:17:32;3.28;;;2.92;;
44428;SDS011;30134;47.866;-4.222;2024-01-30T03:19:58;4.97;;;3.30;;
44428;SDS011;30134;47.866;-4.222;2024-01-30T03:22:24;3.60;;;2.80;;
44428;SDS011;30134;47.866;-4.222;2024-01-30T03:24:50;3.78;;;3.00;;
44428;SDS011;30134;47.866;-4.222;2024-01-30T03:27:16;4.35;;;3.00;;
44428;SDS011;30134;47.866;-4.222;2024-01-30T03:29:42;3.30;;;2.47;;
44428;SDS011;30134;47.866;-4.222;2024-01-30T03:32:08;4.65;;;2.80;;
44428;SDS011;30134;47.866;-4.222;2024-01-30T03:34:34;3.15;;;2.65;;
44428;SDS011;30134;47.866;-4.222;2024-01-30T03:37:00;3.95;;;2.95;;
44428;SDS011;30134;47.866;-4.222;2024-01-30T03:39:26;5.82;;;2.40;;
44428;SDS011;30134;47.866;-4.222;2024-01-30T03:41:52;4.22;;;2.67;;
44428;SDS011;30134;47.866;-4.222;2024-01-30T03:44:18;4.75;;;2.60;;
44428;SDS011;30134;47.866;-4.222;2024-01-30T03:46:43;3.72;;;2.45;;
44428;SDS011;30134;47.866;-4.222;2024-01-30T03:49:09;3.55;;;2.28;;
44428;SDS011;30134;47.866;-4.222;2024-01-30T03:51:35;2.83;;;2.45;;
44428;SDS011;30134;47.866;-4.222;2024-01-30T03:54:01;2.67;;;2.28;;
44428;SDS011;30134;47.866;-4.222;2024-01-30T03:56:27;3.03;;;2.40;;
44428;SDS011;30134;47.866;-4.222;2024-01-30T03:58:53;3.78;;;2.55;;
44428;SDS011;30134;47.866;-4.222;2024-01-30T04:01:21;2.47;;;2.05;;
44428;SDS011;30134;47.866;-4.222;2024-01-30T04:03:47;3.40;;;2.15;;
44428;SDS011;30134;47.866;-4.222;2024-01-30T04:06:13;3.35;;;2.30;;
44428;SDS011;30134;47.866;-4.222;2024-01-30T04:08:39;2.95;;;2.10;;
44428;SDS011;30134;47.866;-4.222;2024-01-30T04:11:05;2.47;;;2.10;;
44428;SDS011;30134;47.866;-4.222;2024-01-30T04:13:32;2.95;;;2.40;;
44428;SDS011;30134;47.866;-4.222;2024-01-30T04:15:59;2.58;;;1.90;;
44428;SDS011;30134;47.866;-4.222;2024-01-30T04:18:28;3.33;;;2.33;;
44428;SDS011;30134;47.866;-4.222;2024-01-30T04:20:55;2.83;;;2.10;;
44428;SDS011;30134;47.866;-4.222;2024-01-30T04:23:21;2.63;;;1.80;;
44428;SDS011;30134;47.866;-4.222;2024-01-30T04:25:47;2.78;;;1.92;;
44428;SDS011;30134;47.866;-4.222;2024-01-30T04:28:13;3.45;;;2.10;;
44428;SDS011;30134;47.866;-4.222;2024-01-30T04:30:39;2.50;;;1.80;;
44428;SDS011;30134;47.866;-4.222;2024-01-30T04:33:05;2.05;;;1.70;;
44428;SDS011;30134;47.866;-4.222;2024-01-30T04:35:31;2.83;;;2.13;;
44428;SDS011;30134;47.866;-4.222;2024-01-30T04:37:57;2.78;;;1.77;;
44428;SDS011;30134;47.866;-4.222;2024-01-30T04:40:23;2.55;;;1.77;;
44428;SDS011;30134;47.866;-4.222;2024-01-30T04:42:49;3.22;;;2.15;;
44428;SDS011;30134;47.866;-4.222;2024-01-30T04:45:15;2.30;;;1.80;;
44428;SDS011;30134;47.866;-4.222;2024-01-30T04:47:41;1.92;;;1.60;;
44428;SDS011;30134;47.866;-4.222;2024-01-30T04:50:08;2.00;;;1.73;;
44428;SDS011;30134;47.866;-4.222;2024-01-30T04:52:34;2.25;;;1.63;;
44428;SDS011;30134;47.866;-4.222;2024-01-30T04:55:01;2.00;;;1.50;;
44428;SDS011;30134;47.866;-4.222;2024-01-30T04:57:27;1.38;;;1.13;;
44428;SDS011;30134;47.866;-4.222;2024-01-30T04:59:53;1.92;;;1.50;;
44428;SDS011;30134;47.866;-4.222;2024-01-30T05:02:19;3.08;;;1.50;;
44428;SDS011;30134;47.866;-4.222;2024-01-30T05:04:45;1.90;;;1.70;;
44428;SDS011;30134;47.866;-4.222;2024-01-30T05:07:11;1.95;;;1.52;;
44428;SDS011;30134;47.866;-4.222;2024-01-30T05:09:37;2.00;;;1.60;;
44428;SDS011;30134;47.866;-4.222;2024-01-30T05:12:03;2.25;;;1.60;;
44428;SDS011;30134;47.866;-4.222;2024-01-30T05:14:29;2.13;;;1.65;;
44428;SDS011;30134;47.866;-4.222;2024-01-30T05:16:55;1.90;;;1.45;;
44428;SDS011;30134;47.866;-4.222;2024-01-30T05:19:21;1.67;;;1.52;;
44428;SDS011;30134;47.866;-4.222;2024-01-30T05:21:48;2.50;;;1.60;;
44428;SDS011;30134;47.866;-4.222;2024-01-30T05:24:15;1.83;;;1.40;;
44428;SDS011;30134;47.866;-4.222;2024-01-30T05:26:41;2.95;;;1.73;;
44428;SDS011;30134;47.866;-4.222;2024-01-30T05:29:07;2.00;;;1.48;;
44428;SDS011;30134;47.866;-4.222;2024-01-30T05:31:36;1.73;;;1.40;;
44428;SDS011;30134;47.866;-4.222;2024-01-30T05:34:02;1.58;;;1.33;;
44428;SDS011;30134;47.866;-4.222;2024-01-30T05:36:28;2.00;;;1.52;;
44428;SDS011;30134;47.866;-4.222;2024-01-30T05:38:55;1.88;;;1.45;;
44428;SDS011;30134;47.866;-4.222;2024-01-30T05:41:22;2.10;;;1.60;;
44428;SDS011;30134;47.866;-4.222;2024-01-30T05:43:48;1.98;;;1.50;;
44428;SDS011;30134;47.866;-4.222;2024-01-30T05:46:14;1.60;;;1.48;;
44428;SDS011;30134;47.866;-4.222;2024-01-30T05:48:40;1.83;;;1.50;;
44428;SDS011;30134;47.866;-4.222;2024-01-30T05:51:07;2.38;;;1.63;;
44428;SDS011;30134;47.866;-4.222;2024-01-30T05:53:33;2.90;;;1.63;;
44428;SDS011;30134;47.866;-4.222;2024-01-30T05:56:02;8.02;;;3.03;;
44428;SDS011;30134;47.866;-4.222;2024-01-30T05:58:28;15.07;;;8.50;;
44428;SDS011;30134;47.866;-4.222;2024-01-30T06:00:56;34.33;;;22.60;;
44428;SDS011;30134;47.866;-4.222;2024-01-30T06:03:22;68.13;;;45.70;;
44428;SDS011;30134;47.866;-4.222;2024-01-30T06:05:49;80.43;;;55.50;;
44428;SDS011;30134;47.866;-4.222;2024-01-30T06:08:14;107.53;;;69.95;;
44428;SDS011;30134;47.866;-4.222;2024-01-30T06:10:40;111.38;;;76.43;;
44428;SDS011;30134;47.866;-4.222;2024-01-30T06:13:06;114.25;;;79.47;;
44428;SDS011;30134;47.866;-4.222;2024-01-30T06:15:32;115.68;;;80.13;;
44428;SDS011;30134;47.866;-4.222;2024-01-30T06:17:58;113.30;;;77.50;;
44428;SDS011;30134;47.866;-4.222;2024-01-30T06:20:25;111.72;;;78.25;;
44428;SDS011;30134;47.866;-4.222;2024-01-30T06:22:51;109.57;;;76.15;;
44428;SDS011;30134;47.866;-4.222;2024-01-30T06:25:17;105.25;;;73.35;;
44428;SDS011;30134;47.866;-4.222;2024-01-30T06:27:43;106.25;;;72.72;;
44428;SDS011;30134;47.866;-4.222;2024-01-30T06:30:09;103.55;;;69.93;;
44428;SDS011;30134;47.866;-4.222;2024-01-30T06:32:36;99.25;;;68.25;;
44428;SDS011;30134;47.866;-4.222;2024-01-30T06:35:02;93.65;;;65.57;;
44428;SDS011;30134;47.866;-4.222;2024-01-30T06:37:30;91.25;;;63.58;;
44428;SDS011;30134;47.866;-4.222;2024-01-30T06:39:56;90.95;;;62.90;;
44428;SDS011;30134;47.866;-4.222;2024-01-30T06:42:22;89.30;;;60.25;;
44428;SDS011;30134;47.866;-4.222;2024-01-30T06:44:49;82.70;;;57.97;;
44428;SDS011;30134;47.866;-4.222;2024-01-30T06:47:14;84.72;;;55.90;;
44428;SDS011;30134;47.866;-4.222;2024-01-30T06:49:41;78.90;;;54.60;;
44428;SDS011;30134;47.866;-4.222;2024-01-30T06:52:08;77.40;;;54.10;;
44428;SDS011;30134;47.866;-4.222;2024-01-30T06:54:35;75.28;;;52.85;;
44428;SDS011;30134;47.866;-4.222;2024-01-30T06:57:01;75.45;;;51.55;;
44428;SDS011;30134;47.866;-4.222;2024-01-30T06:59:28;71.85;;;49.35;;
44428;SDS011;30134;47.866;-4.222;2024-01-30T07:01:54;70.32;;;48.75;;
44428;SDS011;30134;47.866;-4.222;2024-01-30T07:04:20;65.65;;;46.78;;
44428;SDS011;30134;47.866;-4.222;2024-01-30T07:06:46;63.78;;;44.03;;
44428;SDS011;30134;47.866;-4.222;2024-01-30T07:09:12;60.70;;;42.60;;
44428;SDS011;30134;47.866;-4.222;2024-01-30T07:11:38;61.42;;;43.45;;
44428;SDS011;30134;47.866;-4.222;2024-01-30T07:14:04;60.63;;;42.17;;
44428;SDS011;30134;47.866;-4.222;2024-01-30T07:16:30;54.70;;;39.15;;
44428;SDS011;30134;47.866;-4.222;2024-01-30T07:18:56;57.13;;;39.28;;
44428;SDS011;30134;47.866;-4.222;2024-01-30T07:21:22;52.50;;;37.78;;
44428;SDS011;30134;47.866;-4.222;2024-01-30T07:23:53;48.08;;;35.45;;
44428;SDS011;30134;47.866;-4.222;2024-01-30T07:26:20;50.22;;;35.50;;
44428;SDS011;30134;47.866;-4.222;2024-01-30T07:28:47;51.20;;;35.33;;
44428;SDS011;30134;47.866;-4.222;2024-01-30T07:31:13;44.85;;;32.55;;
44428;SDS011;30134;47.866;-4.222;2024-01-30T07:33:38;47.25;;;33.58;;
44428;SDS011;30134;47.866;-4.222;2024-01-30T07:36:04;48.05;;;32.72;;
44428;SDS011;30134;47.866;-4.222;2024-01-30T07:38:31;42.55;;;30.92;;
44428;SDS011;30134;47.866;-4.222;2024-01-30T07:40:57;43.58;;;30.67;;
44428;SDS011;30134;47.866;-4.222;2024-01-30T07:43:24;39.80;;;28.80;;
44428;SDS011;30134;47.866;-4.222;2024-01-30T07:45:49;39.00;;;28.10;;
44428;SDS011;30134;47.866;-4.222;2024-01-30T07:48:15;39.15;;;27.20;;
44428;SDS011;30134;47.866;-4.222;2024-01-30T07:50:42;37.00;;;26.52;;
44428;SDS011;30134;47.866;-4.222;2024-01-30T07:53:08;37.00;;;26.67;;
44428;SDS011;30134;47.866;-4.222;2024-01-30T07:55:34;37.83;;;25.35;;
44428;SDS011;30134;47.866;-4.222;2024-01-30T07:58:00;35.63;;;24.88;;
44428;SDS011;30134;47.866;-4.222;2024-01-30T08:00:26;32.17;;;22.40;;
44428;SDS011;30134;47.866;-4.222;2024-01-30T08:02:54;32.03;;;23.48;;
44428;SDS011;30134;47.866;-4.222;2024-01-30T08:05:21;32.42;;;22.13;;
44428;SDS011;30134;47.866;-4.222;2024-01-30T08:07:48;29.15;;;20.77;;
44428;SDS011;30134;47.866;-4.222;2024-01-30T08:10:15;29.63;;;21.15;;
44428;SDS011;30134;47.866;-4.222;2024-01-30T08:12:44;29.42;;;20.73;;
44428;SDS011;30134;47.866;-4.222;2024-01-30T08:15:10;29.92;;;20.30;;
44428;SDS011;30134;47.866;-4.222;2024-01-30T08:17:37;28.80;;;19.90;;
44428;SDS011;30134;47.866;-4.222;2024-01-30T08:20:03;26.88;;;19.23;;
44428;SDS011;30134;47.866;-4.222;2024-01-30T08:22:30;25.65;;;18.55;;
44428;SDS011;30134;47.866;-4.222;2024-01-30T08:24:56;25.02;;;17.95;;
44428;SDS011;30134;47.866;-4.222;2024-01-30T08:27:22;24.45;;;17.25;;
44428;SDS011;30134;47.866;-4.222;2024-01-30T08:29:48;23.17;;;17.40;;
44428;SDS011;30134;47.866;-4.222;2024-01-30T08:32:15;22.70;;;16.48;;
44428;SDS011;30134;47.866;-4.222;2024-01-30T08:34:41;22.38;;;16.15;;
44428;SDS011;30134;47.866;-4.222;2024-01-30T08:37:07;20.20;;;14.70;;
44428;SDS011;30134;47.866;-4.222;2024-01-30T08:39:33;19.83;;;15.10;;
44428;SDS011;30134;47.866;-4.222;2024-01-30T08:41:59;19.52;;;14.45;;
44428;SDS011;30134;47.866;-4.222;2024-01-30T08:44:25;20.00;;;14.63;;
44428;SDS011;30134;47.866;-4.222;2024-01-30T08:46:52;19.60;;;14.07;;
44428;SDS011;30134;47.866;-4.222;2024-01-30T08:49:19;17.35;;;12.75;;
44428;SDS011;30134;47.866;-4.222;2024-01-30T08:51:45;19.00;;;13.60;;
44428;SDS011;30134;47.866;-4.222;2024-01-30T08:54:12;19.63;;;13.48;;
44428;SDS011;30134;47.866;-4.222;2024-01-30T08:56:38;16.70;;;12.57;;
44428;SDS011;30134;47.866;-4.222;2024-01-30T08:59:04;16.20;;;12.30;;
44428;SDS011;30134;47.866;-4.222;2024-01-30T09:01:30;18.48;;;12.90;;
44428;SDS011;30134;47.866;-4.222;2024-01-30T09:03:56;26.60;;;18.90;;
44428;SDS011;30134;47.866;-4.222;2024-01-30T09:06:22;38.25;;;28.23;;
44428;SDS011;30134;47.866;-4.222;2024-01-30T09:08:49;54.42;;;38.20;;
44428;SDS011;30134;47.866;-4.222;2024-01-30T09:11:15;65.70;;;46.55;;
44428;SDS011;30134;47.866;-4.222;2024-01-30T09:13:42;71.40;;;52.25;;
44428;SDS011;30134;47.866;-4.222;2024-01-30T09:16:08;78.25;;;53.22;;
44428;SDS011;30134;47.866;-4.222;2024-01-30T09:18:34;81.78;;;56.80;;
44428;SDS011;30134;47.866;-4.222;2024-01-30T09:21:00;84.35;;;59.75;;
44428;SDS011;30134;47.866;-4.222;2024-01-30T09:23:27;86.97;;;61.33;;
44428;SDS011;30134;47.866;-4.222;2024-01-30T09:25:53;81.53;;;59.92;;
44428;SDS011;30134;47.866;-4.222;2024-01-30T09:28:19;82.22;;;57.70;;
44428;SDS011;30134;47.866;-4.222;2024-01-30T09:30:45;80.22;;;58.25;;
44428;SDS011;30134;47.866;-4.222;2024-01-30T09:33:11;78.45;;;56.45;;
44428;SDS011;30134;47.866;-4.222;2024-01-30T09:35:37;75.43;;;54.05;;
44428;SDS011;30134;47.866;-4.222;2024-01-30T09:38:04;75.25;;;53.05;;
44428;SDS011;30134;47.866;-4.222;2024-01-30T09:40:30;71.00;;;51.28;;
44428;SDS011;30134;47.866;-4.222;2024-01-30T09:42:56;66.18;;;48.42;;
44428;SDS011;30134;47.866;-4.222;2024-01-30T09:45:25;67.18;;;46.50;;
44428;SDS011;30134;47.866;-4.222;2024-01-30T09:47:51;63.38;;;45.33;;
44428;SDS011;30134;47.866;-4.222;2024-01-30T09:50:18;59.85;;;44.17;;
44428;SDS011;30134;47.866;-4.222;2024-01-30T09:52:48;58.55;;;42.17;;
44428;SDS011;30134;47.866;-4.222;2024-01-30T09:55:16;56.13;;;41.40;;
44428;SDS011;30134;47.866;-4.222;2024-01-30T09:57:42;53.58;;;38.85;;
44428;SDS011;30134;47.866;-4.222;2024-01-30T10:00:08;52.13;;;38.50;;
44428;SDS011;30134;47.866;-4.222;2024-01-30T10:02:35;47.30;;;34.85;;
44428;SDS011;30134;47.866;-4.222;2024-01-30T10:05:02;47.13;;;34.33;;
44428;SDS011;30134;47.866;-4.222;2024-01-30T10:07:28;47.20;;;35.28;;
44428;SDS011;30134;47.866;-4.222;2024-01-30T10:09:55;44.45;;;32.55;;
44428;SDS011;30134;47.866;-4.222;2024-01-30T10:12:22;44.08;;;30.55;;
44428;SDS011;30134;47.866;-4.222;2024-01-30T10:14:48;41.75;;;30.50;;
44428;SDS011;30134;47.866;-4.222;2024-01-30T10:17:14;42.33;;;29.60;;
44428;SDS011;30134;47.866;-4.222;2024-01-30T10:19:40;40.47;;;29.98;;
44428;SDS011;30134;47.866;-4.222;2024-01-30T10:22:07;38.63;;;28.17;;
44428;SDS011;30134;47.866;-4.222;2024-01-30T10:24:34;35.40;;;26.98;;
44428;SDS011;30134;47.866;-4.222;2024-01-30T10:27:00;35.92;;;25.52;;
44428;SDS011;30134;47.866;-4.222;2024-01-30T10:29:27;36.33;;;26.08;;
44428;SDS011;30134;47.866;-4.222;2024-01-30T10:31:59;33.05;;;25.52;;
44428;SDS011;30134;47.866;-4.222;2024-01-30T10:34:30;31.70;;;24.00;;
44428;SDS011;30134;47.866;-4.222;2024-01-30T10:37:10;30.83;;;22.50;;
44428;SDS011;30134;47.866;-4.222;2024-01-30T10:39:41;30.67;;;22.58;;
44428;SDS011;30134;47.866;-4.222;2024-01-30T10:42:15;30.52;;;22.40;;
44428;SDS011;30134;47.866;-4.222;2024-01-30T10:44:57;26.67;;;20.58;;
44428;SDS011;30134;47.866;-4.222;2024-01-30T10:47:34;27.50;;;19.88;;
44428;SDS011;30134;47.866;-4.222;2024-01-30T10:50:04;26.13;;;19.67;;
44428;SDS011;30134;47.866;-4.222;2024-01-30T10:52:31;26.13;;;18.73;;
44428;SDS011;30134;47.866;-4.222;2024-01-30T10:54:58;25.40;;;19.15;;
44428;SDS011;30134;47.866;-4.222;2024-01-30T10:57:26;25.38;;;18.90;;
44428;SDS011;30134;47.866;-4.222;2024-01-30T10:59:53;25.73;;;17.55;;
44428;SDS011;30134;47.866;-4.222;2024-01-30T11:02:24;23.55;;;17.08;;
44428;SDS011;30134;47.866;-4.222;2024-01-30T11:04:54;22.08;;;16.67;;
44428;SDS011;30134;47.866;-4.222;2024-01-30T11:07:25;21.10;;;15.13;;
44428;SDS011;30134;47.866;-4.222;2024-01-30T11:09:59;19.45;;;15.07;;
44428;SDS011;30134;47.866;-4.222;2024-01-30T11:12:32;19.52;;;14.73;;
44428;SDS011;30134;47.866;-4.222;2024-01-30T11:15:06;18.75;;;14.40;;
44428;SDS011;30134;47.866;-4.222;2024-01-30T11:17:41;19.30;;;13.95;;
44428;SDS011;30134;47.866;-4.222;2024-01-30T11:22:37;16.90;;;13.23;;
44428;SDS011;30134;47.866;-4.222;2024-01-30T11:25:05;16.70;;;12.45;;
44428;SDS011;30134;47.866;-4.222;2024-01-30T11:27:36;16.13;;;12.32;;
44428;SDS011;30134;47.866;-4.222;2024-01-30T11:30:03;16.77;;;12.02;;
44428;SDS011;30134;47.866;-4.222;2024-01-30T11:32:30;16.70;;;11.20;;
44428;SDS011;30134;47.866;-4.222;2024-01-30T11:34:56;16.80;;;11.82;;
44428;SDS011;30134;47.866;-4.222;2024-01-30T11:37:23;20.15;;;14.13;;
44428;SDS011;30134;47.866;-4.222;2024-01-30T11:39:54;25.00;;;18.27;;
44428;SDS011;30134;47.866;-4.222;2024-01-30T11:42:23;30.40;;;22.65;;
44428;SDS011;30134;47.866;-4.222;2024-01-30T11:44:52;40.03;;;28.20;;
44428;SDS011;30134;47.866;-4.222;2024-01-30T11:47:19;47.90;;;33.38;;
44428;SDS011;30134;47.866;-4.222;2024-01-30T11:49:45;59.08;;;40.60;;
44428;SDS011;30134;47.866;-4.222;2024-01-30T11:52:11;65.50;;;45.83;;
44428;SDS011;30134;47.866;-4.222;2024-01-30T11:54:41;71.53;;;48.25;;
44428;SDS011;30134;47.866;-4.222;2024-01-30T11:57:07;76.60;;;52.63;;
44428;SDS011;30134;47.866;-4.222;2024-01-30T11:59:34;76.80;;;52.58;;
44428;SDS011;30134;47.866;-4.222;2024-01-30T12:02:00;75.38;;;54.08;;
44428;SDS011;30134;47.866;-4.222;2024-01-30T12:04:29;81.78;;;56.35;;
44428;SDS011;30134;47.866;-4.222;2024-01-30T12:06:55;78.18;;;55.47;;
44428;SDS011;30134;47.866;-4.222;2024-01-30T12:09:22;82.32;;;56.70;;
44428;SDS011;30134;47.866;-4.222;2024-01-30T12:11:48;80.78;;;56.03;;
44428;SDS011;30134;47.866;-4.222;2024-01-30T12:14:15;81.82;;;57.47;;
44428;SDS011;30134;47.866;-4.222;2024-01-30T12:16:42;78.57;;;55.67;;
44428;SDS011;30134;47.866;-4.222;2024-01-30T12:19:08;79.95;;;54.20;;
44428;SDS011;30134;47.866;-4.222;2024-01-30T12:21:34;76.32;;;52.50;;
44428;SDS011;30134;47.866;-4.222;2024-01-30T12:24:01;75.93;;;52.35;;
44428;SDS011;30134;47.866;-4.222;2024-01-30T12:26:27;71.68;;;51.85;;
44428;SDS011;30134;47.866;-4.222;2024-01-30T12:28:56;69.32;;;47.83;;
44428;SDS011;30134;47.866;-4.222;2024-01-30T12:31:27;67.28;;;46.03;;
44428;SDS011;30134;47.866;-4.222;2024-01-30T12:33:53;66.18;;;46.70;;
44428;SDS011;30134;47.866;-4.222;2024-01-30T12:36:23;65.28;;;46.05;;
44428;SDS011;30134;47.866;-4.222;2024-01-30T12:38:56;63.22;;;44.53;;
44428;SDS011;30134;47.866;-4.222;2024-01-30T12:41:23;60.92;;;42.42;;
44428;SDS011;30134;47.866;-4.222;2024-01-30T12:43:53;57.40;;;40.88;;
44428;SDS011;30134;47.866;-4.222;2024-01-30T12:46:19;54.92;;;40.25;;
44428;SDS011;30134;47.866;-4.222;2024-01-30T12:48:46;55.78;;;38.92;;
44428;SDS011;30134;47.866;-4.222;2024-01-30T12:51:12;53.45;;;38.80;;
44428;SDS011;30134;47.866;-4.222;2024-01-30T12:53:38;51.15;;;37.13;;
44428;SDS011;30134;47.866;-4.222;2024-01-30T12:56:04;51.88;;;36.75;;
44428;SDS011;30134;47.866;-4.222;2024-01-30T12:58:31;47.53;;;34.63;;
44428;SDS011;30134;47.866;-4.222;2024-01-30T13:00:57;51.42;;;35.15;;
44428;SDS011;30134;47.866;-4.222;2024-01-30T13:03:23;45.45;;;32.22;;
44428;SDS011;30134;47.866;-4.222;2024-01-30T13:05:49;45.75;;;33.03;;
44428;SDS011;30134;47.866;-4.222;2024-01-30T13:08:15;46.75;;;31.85;;
44428;SDS011;30134;47.866;-4.222;2024-01-30T13:10:41;42.67;;;30.02;;
44428;SDS011;30134;47.866;-4.222;2024-01-30T13:13:07;43.63;;;29.90;;
44428;SDS011;30134;47.866;-4.222;2024-01-30T13:15:34;41.22;;;29.45;;
44428;SDS011;30134;47.866;-4.222;2024-01-30T13:18:00;42.33;;;29.00;;
44428;SDS011;30134;47.866;-4.222;2024-01-30T13:20:27;37.47;;;26.42;;
44428;SDS011;30134;47.866;-4.222;2024-01-30T13:22:53;33.53;;;25.15;;
44428;SDS011;30134;47.866;-4.222;2024-01-30T13:25:19;33.55;;;24.95;;
44428;SDS011;30134;47.866;-4.222;2024-01-30T13:27:45;34.63;;;24.55;;
44428;SDS011;30134;47.866;-4.222;2024-01-30T13:30:11;33.03;;;23.30;;
44428;SDS011;30134;47.866;-4.222;2024-01-30T13:32:38;31.42;;;22.30;;
44428;SDS011;30134;47.866;-4.222;2024-01-30T13:35:06;34.53;;;23.77;;
44428;SDS011;30134;47.866;-4.222;2024-01-30T13:37:32;40.35;;;27.98;;
44428;SDS011;30134;47.866;-4.222;2024-01-30T13:39:59;44.90;;;31.27;;
44428;SDS011;30134;47.866;-4.222;2024-01-30T13:42:25;49.38;;;34.10;;
44428;SDS011;30134;47.866;-4.222;2024-01-30T13:44:51;53.95;;;37.13;;
44428;SDS011;30134;47.866;-4.222;2024-01-30T13:47:18;56.58;;;40.50;;
44428;SDS011;30134;47.866;-4.222;2024-01-30T13:49:46;59.92;;;42.20;;
44428;SDS011;30134;47.866;-4.222;2024-01-30T13:52:12;70.88;;;47.05;;
44428;SDS011;30134;47.866;-4.222;2024-01-30T13:54:40;73.50;;;51.55;;
44428;SDS011;30134;47.866;-4.222;2024-01-30T13:57:06;76.40;;;50.92;;
44428;SDS011;30134;47.866;-4.222;2024-01-30T13:59:33;74.30;;;52.80;;
44428;SDS011;30134;47.866;-4.222;2024-01-30T14:01:59;85.50;;;57.33;;
44428;SDS011;30134;47.866;-4.222;2024-01-30T14:04:25;92.18;;;64.13;;
44428;SDS011;30134;47.866;-4.222;2024-01-30T14:06:51;108.20;;;75.30;;
44428;SDS011;30134;47.866;-4.222;2024-01-30T14:09:17;114.60;;;82.05;;
44428;SDS011;30134;47.866;-4.222;2024-01-30T14:11:45;115.15;;;82.25;;
44428;SDS011;30134;47.866;-4.222;2024-01-30T14:14:11;116.57;;;82.50;;
44428;SDS011;30134;47.866;-4.222;2024-01-30T14:16:37;118.47;;;84.25;;